sensor_id;sensor_type;location;lat;lon;timestamp;P1;durP1;ratioP1;P2;durP2;ratioP2
8944;SDS011;4507;40.232;29.132;2023-03-03T00:02:08;51.67;;;46.07;;
8944;SDS011;4507;40.232;29.132;2023-03-03T00:04:37;51.03;;;42.93;;
8944;SDS011;4507;40.232;29.132;2023-03-03T00:07:06;47.67;;;42.57;;
8944;SDS011;4507;40.232;29.132;2023-03-03T00:09:35;47.60;;;41.83;;
8944;SDS011;4507;40.232;29.132;2023-03-03T00:12:14;47.87;;;41.37;;
8944;SDS011;4507;40.232;29.132;2023-03-03T00:14:48;46.17;;;41.30;;
8944;SDS011;4507;40.232;29.132;2023-03-03T00:17:20;48.73;;;43.00;;
8944;SDS011;4507;40.232;29.132;2023-03-03T00:19:50;44.87;;;40.07;;
8944;SDS011;4507;40.232;29.132;2023-03-03T00:22:23;46.60;;;41.53;;
8944;SDS011;4507;40.232;29.132;2023-03-03T00:24:57;48.30;;;42.50;;
8944;SDS011;4507;40.232;29.132;2023-03-03T00:27:48;52.03;;;45.30;;
8944;SDS011;4507;40.232;29.132;2023-03-03T00:30:18;52.00;;;44.00;;
8944;SDS011;4507;40.232;29.132;2023-03-03T00:32:50;56.07;;;45.10;;
8944;SDS011;4507;40.232;29.132;2023-03-03T00:35:25;55.57;;;44.43;;
8944;SDS011;4507;40.232;29.132;2023-03-03T00:38:01;53.53;;;44.57;;
8944;SDS011;4507;40.232;29.132;2023-03-03T00:40:39;45.90;;;41.00;;
8944;SDS011;4507;40.232;29.132;2023-03-03T00:43:14;45.93;;;41.07;;
8944;SDS011;4507;40.232;29.132;2023-03-03T00:45:47;44.10;;;39.43;;
8944;SDS011;4507;40.232;29.132;2023-03-03T00:48:22;42.50;;;38.03;;
8944;SDS011;4507;40.232;29.132;2023-03-03T00:50:53;45.97;;;38.80;;
8944;SDS011;4507;40.232;29.132;2023-03-03T00:53:23;41.57;;;37.23;;
8944;SDS011;4507;40.232;29.132;2023-03-03T00:55:53;44.60;;;37.77;;
8944;SDS011;4507;40.232;29.132;2023-03-03T00:58:24;43.03;;;38.33;;
8944;SDS011;4507;40.232;29.132;2023-03-03T01:00:54;43.13;;;38.33;;
8944;SDS011;4507;40.232;29.132;2023-03-03T01:03:38;42.03;;;37.63;;
8944;SDS011;4507;40.232;29.132;2023-03-03T01:06:08;44.20;;;37.17;;
8944;SDS011;4507;40.232;29.132;2023-03-03T01:08:38;42.27;;;37.87;;
8944;SDS011;4507;40.232;29.132;2023-03-03T01:11:08;42.47;;;38.00;;
8944;SDS011;4507;40.232;29.132;2023-03-03T01:13:41;47.70;;;38.97;;
8944;SDS011;4507;40.232;29.132;2023-03-03T01:16:13;43.57;;;38.83;;
8944;SDS011;4507;40.232;29.132;2023-03-03T01:18:42;43.63;;;39.03;;
8944;SDS011;4507;40.232;29.132;2023-03-03T01:21:11;44.90;;;40.20;;
8944;SDS011;4507;40.232;29.132;2023-03-03T01:23:40;43.27;;;38.57;;
8944;SDS011;4507;40.232;29.132;2023-03-03T01:26:09;45.57;;;40.77;;
8944;SDS011;4507;40.232;29.132;2023-03-03T01:28:38;45.53;;;40.53;;
8944;SDS011;4507;40.232;29.132;2023-03-03T01:31:09;45.30;;;40.40;;
8944;SDS011;4507;40.232;29.132;2023-03-03T01:33:38;46.97;;;39.87;;
8944;SDS011;4507;40.232;29.132;2023-03-03T01:36:07;44.80;;;40.00;;
8944;SDS011;4507;40.232;29.132;2023-03-03T01:38:37;49.27;;;40.43;;
8944;SDS011;4507;40.232;29.132;2023-03-03T01:41:06;47.20;;;40.43;;
8944;SDS011;4507;40.232;29.132;2023-03-03T01:43:41;44.67;;;39.80;;
8944;SDS011;4507;40.232;29.132;2023-03-03T01:49:19;43.73;;;38.97;;
8944;SDS011;4507;40.232;29.132;2023-03-03T01:51:53;42.70;;;37.83;;
8944;SDS011;4507;40.232;29.132;2023-03-03T01:54:25;44.80;;;38.03;;
8944;SDS011;4507;40.232;29.132;2023-03-03T01:57:00;42.80;;;38.17;;
8944;SDS011;4507;40.232;29.132;2023-03-03T01:59:41;44.83;;;40.03;;
8944;SDS011;4507;40.232;29.132;2023-03-03T02:02:15;48.30;;;41.67;;
8944;SDS011;4507;40.232;29.132;2023-03-03T02:04:45;47.77;;;42.13;;
8944;SDS011;4507;40.232;29.132;2023-03-03T02:07:14;50.60;;;44.43;;
8944;SDS011;4507;40.232;29.132;2023-03-03T02:09:48;48.40;;;43.20;;
8944;SDS011;4507;40.232;29.132;2023-03-03T02:12:25;51.07;;;44.13;;
8944;SDS011;4507;40.232;29.132;2023-03-03T02:15:22;48.80;;;43.73;;
8944;SDS011;4507;40.232;29.132;2023-03-03T02:17:54;48.77;;;43.53;;
8944;SDS011;4507;40.232;29.132;2023-03-03T02:20:30;49.33;;;43.63;;
8944;SDS011;4507;40.232;29.132;2023-03-03T02:23:12;49.20;;;43.10;;
8944;SDS011;4507;40.232;29.132;2023-03-03T02:25:52;48.40;;;43.03;;
8944;SDS011;4507;40.232;29.132;2023-03-03T02:28:38;51.87;;;44.10;;
8944;SDS011;4507;40.232;29.132;2023-03-03T02:31:10;50.33;;;44.03;;
8944;SDS011;4507;40.232;29.132;2023-03-03T02:33:43;50.50;;;43.63;;
8944;SDS011;4507;40.232;29.132;2023-03-03T02:36:14;51.30;;;45.83;;
8944;SDS011;4507;40.232;29.132;2023-03-03T02:38:46;51.67;;;45.63;;
8944;SDS011;4507;40.232;29.132;2023-03-03T02:41:26;55.77;;;49.17;;
8944;SDS011;4507;40.232;29.132;2023-03-03T02:44:02;57.47;;;49.90;;
8944;SDS011;4507;40.232;29.132;2023-03-03T02:46:51;59.37;;;50.67;;
8944;SDS011;4507;40.232;29.132;2023-03-03T02:49:22;59.60;;;50.60;;
8944;SDS011;4507;40.232;29.132;2023-03-03T02:51:52;56.67;;;49.97;;
8944;SDS011;4507;40.232;29.132;2023-03-03T02:54:25;55.93;;;49.10;;
8944;SDS011;4507;40.232;29.132;2023-03-03T02:56:59;58.13;;;48.57;;
8944;SDS011;4507;40.232;29.132;2023-03-03T02:59:30;53.97;;;48.13;;
8944;SDS011;4507;40.232;29.132;2023-03-03T03:02:07;57.73;;;50.17;;
8944;SDS011;4507;40.232;29.132;2023-03-03T03:04:36;68.90;;;55.27;;
8944;SDS011;4507;40.232;29.132;2023-03-03T03:07:05;77.40;;;59.37;;
8944;SDS011;4507;40.232;29.132;2023-03-03T03:09:36;64.67;;;54.07;;
8944;SDS011;4507;40.232;29.132;2023-03-03T03:12:06;54.03;;;48.03;;
8944;SDS011;4507;40.232;29.132;2023-03-03T03:14:35;52.10;;;46.17;;
8944;SDS011;4507;40.232;29.132;2023-03-03T03:17:05;64.00;;;50.27;;
8944;SDS011;4507;40.232;29.132;2023-03-03T03:19:34;69.60;;;56.00;;
8944;SDS011;4507;40.232;29.132;2023-03-03T03:22:03;69.67;;;57.53;;
8944;SDS011;4507;40.232;29.132;2023-03-03T03:24:34;67.77;;;55.40;;
8944;SDS011;4507;40.232;29.132;2023-03-03T03:27:08;60.20;;;52.93;;
8944;SDS011;4507;40.232;29.132;2023-03-03T03:29:37;61.57;;;54.03;;
8944;SDS011;4507;40.232;29.132;2023-03-03T03:32:08;63.90;;;52.87;;
8944;SDS011;4507;40.232;29.132;2023-03-03T03:34:40;68.93;;;53.40;;
8944;SDS011;4507;40.232;29.132;2023-03-03T03:37:10;67.77;;;53.00;;
8944;SDS011;4507;40.232;29.132;2023-03-03T03:39:41;68.23;;;54.23;;
8944;SDS011;4507;40.232;29.132;2023-03-03T03:42:29;86.43;;;56.70;;
8944;SDS011;4507;40.232;29.132;2023-03-03T03:44:59;82.67;;;58.03;;
8944;SDS011;4507;40.232;29.132;2023-03-03T03:47:30;89.53;;;58.97;;
8944;SDS011;4507;40.232;29.132;2023-03-03T03:49:59;81.67;;;63.87;;
8944;SDS011;4507;40.232;29.132;2023-03-03T03:52:28;84.07;;;60.57;;
8944;SDS011;4507;40.232;29.132;2023-03-03T03:54:57;71.87;;;59.43;;
8944;SDS011;4507;40.232;29.132;2023-03-03T03:57:27;69.97;;;59.93;;
8944;SDS011;4507;40.232;29.132;2023-03-03T03:59:58;76.70;;;61.17;;
8944;SDS011;4507;40.232;29.132;2023-03-03T04:02:28;82.30;;;61.97;;
8944;SDS011;4507;40.232;29.132;2023-03-03T04:05:16;79.47;;;60.07;;
8944;SDS011;4507;40.232;29.132;2023-03-03T04:07:45;77.70;;;61.33;;
8944;SDS011;4507;40.232;29.132;2023-03-03T04:10:16;85.07;;;64.90;;
8944;SDS011;4507;40.232;29.132;2023-03-03T04:12:47;92.37;;;75.53;;
8944;SDS011;4507;40.232;29.132;2023-03-03T04:15:21;80.63;;;63.97;;
8944;SDS011;4507;40.232;29.132;2023-03-03T04:17:51;83.43;;;58.50;;
8944;SDS011;4507;40.232;29.132;2023-03-03T04:20:20;72.70;;;54.33;;
8944;SDS011;4507;40.232;29.132;2023-03-03T04:22:49;84.63;;;53.30;;
8944;SDS011;4507;40.232;29.132;2023-03-03T04:25:18;71.63;;;53.20;;
8944;SDS011;4507;40.232;29.132;2023-03-03T04:27:48;76.63;;;52.93;;
8944;SDS011;4507;40.232;29.132;2023-03-03T04:30:22;74.90;;;52.50;;
8944;SDS011;4507;40.232;29.132;2023-03-03T04:32:53;66.13;;;50.90;;
8944;SDS011;4507;40.232;29.132;2023-03-03T04:35:25;68.17;;;49.83;;
8944;SDS011;4507;40.232;29.132;2023-03-03T04:37:55;64.63;;;47.87;;
8944;SDS011;4507;40.232;29.132;2023-03-03T04:40:24;65.47;;;48.60;;
8944;SDS011;4507;40.232;29.132;2023-03-03T04:42:54;57.30;;;48.20;;
8944;SDS011;4507;40.232;29.132;2023-03-03T04:45:24;62.17;;;47.83;;
8944;SDS011;4507;40.232;29.132;2023-03-03T04:47:54;56.83;;;47.47;;
8944;SDS011;4507;40.232;29.132;2023-03-03T04:50:23;61.47;;;46.97;;
8944;SDS011;4507;40.232;29.132;2023-03-03T04:52:52;59.73;;;48.60;;
8944;SDS011;4507;40.232;29.132;2023-03-03T04:55:21;55.60;;;45.43;;
8944;SDS011;4507;40.232;29.132;2023-03-03T04:57:50;58.97;;;45.57;;
8944;SDS011;4507;40.232;29.132;2023-03-03T05:00:20;59.60;;;44.13;;
8944;SDS011;4507;40.232;29.132;2023-03-03T05:02:50;60.70;;;44.77;;
8944;SDS011;4507;40.232;29.132;2023-03-03T05:05:20;59.73;;;46.20;;
8944;SDS011;4507;40.232;29.132;2023-03-03T05:07:52;58.93;;;48.23;;
8944;SDS011;4507;40.232;29.132;2023-03-03T05:10:24;58.17;;;45.63;;
8944;SDS011;4507;40.232;29.132;2023-03-03T05:12:54;52.20;;;44.13;;
8944;SDS011;4507;40.232;29.132;2023-03-03T05:15:33;69.07;;;46.97;;
8944;SDS011;4507;40.232;29.132;2023-03-03T05:18:14;63.07;;;47.07;;
8944;SDS011;4507;40.232;29.132;2023-03-03T05:20:58;62.67;;;50.33;;
8944;SDS011;4507;40.232;29.132;2023-03-03T05:23:35;70.30;;;49.77;;
8944;SDS011;4507;40.232;29.132;2023-03-03T05:26:04;91.83;;;61.30;;
8944;SDS011;4507;40.232;29.132;2023-03-03T05:28:33;68.80;;;40.90;;
8944;SDS011;4507;40.232;29.132;2023-03-03T05:31:02;49.70;;;34.17;;
8944;SDS011;4507;40.232;29.132;2023-03-03T05:33:32;78.30;;;40.90;;
8944;SDS011;4507;40.232;29.132;2023-03-03T05:36:01;80.10;;;47.87;;
8944;SDS011;4507;40.232;29.132;2023-03-03T05:38:49;66.20;;;43.27;;
8944;SDS011;4507;40.232;29.132;2023-03-03T05:41:18;78.20;;;47.40;;
8944;SDS011;4507;40.232;29.132;2023-03-03T05:44:06;56.87;;;40.93;;
8944;SDS011;4507;40.232;29.132;2023-03-03T05:46:35;65.67;;;42.83;;
8944;SDS011;4507;40.232;29.132;2023-03-03T05:49:06;93.87;;;51.30;;
8944;SDS011;4507;40.232;29.132;2023-03-03T05:51:35;76.30;;;50.73;;
8944;SDS011;4507;40.232;29.132;2023-03-03T05:54:04;78.77;;;46.43;;
8944;SDS011;4507;40.232;29.132;2023-03-03T05:56:33;70.23;;;42.47;;
8944;SDS011;4507;40.232;29.132;2023-03-03T05:59:02;49.57;;;36.20;;
8944;SDS011;4507;40.232;29.132;2023-03-03T06:01:31;82.60;;;38.23;;
8944;SDS011;4507;40.232;29.132;2023-03-03T06:04:00;71.17;;;35.83;;
8944;SDS011;4507;40.232;29.132;2023-03-03T06:06:30;68.47;;;36.87;;
8944;SDS011;4507;40.232;29.132;2023-03-03T06:08:59;65.90;;;42.80;;
8944;SDS011;4507;40.232;29.132;2023-03-03T06:11:28;44.90;;;32.00;;
8944;SDS011;4507;40.232;29.132;2023-03-03T06:13:57;42.07;;;29.47;;
8944;SDS011;4507;40.232;29.132;2023-03-03T06:16:26;49.83;;;38.47;;
8944;SDS011;4507;40.232;29.132;2023-03-03T06:18:55;55.03;;;41.03;;
8944;SDS011;4507;40.232;29.132;2023-03-03T06:21:24;48.30;;;39.23;;
8944;SDS011;4507;40.232;29.132;2023-03-03T06:23:55;54.87;;;39.13;;
8944;SDS011;4507;40.232;29.132;2023-03-03T06:26:24;63.70;;;38.00;;
8944;SDS011;4507;40.232;29.132;2023-03-03T06:28:53;44.97;;;31.50;;
8944;SDS011;4507;40.232;29.132;2023-03-03T06:31:22;34.50;;;27.90;;
8944;SDS011;4507;40.232;29.132;2023-03-03T06:33:51;31.17;;;27.80;;
8944;SDS011;4507;40.232;29.132;2023-03-03T06:36:20;43.43;;;29.17;;
8944;SDS011;4507;40.232;29.132;2023-03-03T06:38:51;41.97;;;29.53;;
8944;SDS011;4507;40.232;29.132;2023-03-03T06:41:21;32.97;;;26.70;;
8944;SDS011;4507;40.232;29.132;2023-03-03T06:43:50;39.50;;;28.20;;
8944;SDS011;4507;40.232;29.132;2023-03-03T06:46:19;64.40;;;31.90;;
8944;SDS011;4507;40.232;29.132;2023-03-03T06:48:49;33.23;;;27.70;;
8944;SDS011;4507;40.232;29.132;2023-03-03T06:51:21;37.37;;;28.93;;
8944;SDS011;4507;40.232;29.132;2023-03-03T06:54:11;40.83;;;30.57;;
8944;SDS011;4507;40.232;29.132;2023-03-03T06:56:43;39.53;;;30.23;;
8944;SDS011;4507;40.232;29.132;2023-03-03T06:59:13;39.10;;;30.90;;
8944;SDS011;4507;40.232;29.132;2023-03-03T07:01:45;41.70;;;32.40;;
8944;SDS011;4507;40.232;29.132;2023-03-03T07:04:16;36.77;;;31.50;;
8944;SDS011;4507;40.232;29.132;2023-03-03T07:06:54;40.07;;;33.13;;
8944;SDS011;4507;40.232;29.132;2023-03-03T07:09:24;43.33;;;34.00;;
8944;SDS011;4507;40.232;29.132;2023-03-03T07:11:59;47.17;;;33.93;;
8944;SDS011;4507;40.232;29.132;2023-03-03T07:14:49;41.07;;;33.20;;
8944;SDS011;4507;40.232;29.132;2023-03-03T07:17:23;48.27;;;34.00;;
8944;SDS011;4507;40.232;29.132;2023-03-03T07:19:52;48.77;;;35.80;;
8944;SDS011;4507;40.232;29.132;2023-03-03T07:22:23;43.20;;;34.77;;
8944;SDS011;4507;40.232;29.132;2023-03-03T07:24:56;47.87;;;34.53;;
8944;SDS011;4507;40.232;29.132;2023-03-03T07:27:29;44.40;;;32.77;;
8944;SDS011;4507;40.232;29.132;2023-03-03T07:30:08;50.87;;;37.83;;
8944;SDS011;4507;40.232;29.132;2023-03-03T07:32:49;42.60;;;33.33;;
8944;SDS011;4507;40.232;29.132;2023-03-03T07:38:16;44.57;;;33.70;;
8944;SDS011;4507;40.232;29.132;2023-03-03T07:40:51;47.67;;;33.17;;
8944;SDS011;4507;40.232;29.132;2023-03-03T07:43:26;43.87;;;33.87;;
8944;SDS011;4507;40.232;29.132;2023-03-03T07:46:01;46.70;;;35.33;;
8944;SDS011;4507;40.232;29.132;2023-03-03T07:48:44;45.77;;;35.87;;
8944;SDS011;4507;40.232;29.132;2023-03-03T07:51:15;57.97;;;36.50;;
8944;SDS011;4507;40.232;29.132;2023-03-03T07:53:51;53.43;;;35.80;;
8944;SDS011;4507;40.232;29.132;2023-03-03T07:56:24;52.07;;;36.37;;
8944;SDS011;4507;40.232;29.132;2023-03-03T07:58:58;52.77;;;37.27;;
8944;SDS011;4507;40.232;29.132;2023-03-03T08:01:35;57.03;;;39.93;;
8944;SDS011;4507;40.232;29.132;2023-03-03T08:04:12;58.70;;;44.93;;
8944;SDS011;4507;40.232;29.132;2023-03-03T08:07:08;64.13;;;46.73;;
8944;SDS011;4507;40.232;29.132;2023-03-03T08:09:43;64.90;;;46.83;;
8944;SDS011;4507;40.232;29.132;2023-03-03T08:15:23;59.03;;;50.77;;
8944;SDS011;4507;40.232;29.132;2023-03-03T08:17:55;70.53;;;50.47;;
8944;SDS011;4507;40.232;29.132;2023-03-03T08:23:14;63.43;;;45.73;;
8944;SDS011;4507;40.232;29.132;2023-03-03T08:25:45;59.17;;;46.77;;
8944;SDS011;4507;40.232;29.132;2023-03-03T08:28:15;62.07;;;48.63;;
8944;SDS011;4507;40.232;29.132;2023-03-03T08:30:46;62.93;;;50.67;;
8944;SDS011;4507;40.232;29.132;2023-03-03T08:33:16;61.60;;;47.87;;
8944;SDS011;4507;40.232;29.132;2023-03-03T08:35:46;60.63;;;46.13;;
8944;SDS011;4507;40.232;29.132;2023-03-03T08:38:16;59.77;;;47.83;;
8944;SDS011;4507;40.232;29.132;2023-03-03T08:40:47;58.07;;;45.87;;
8944;SDS011;4507;40.232;29.132;2023-03-03T08:43:17;57.37;;;45.37;;
8944;SDS011;4507;40.232;29.132;2023-03-03T08:46:08;60.27;;;46.57;;
8944;SDS011;4507;40.232;29.132;2023-03-03T08:48:37;54.07;;;43.37;;
8944;SDS011;4507;40.232;29.132;2023-03-03T08:51:07;51.97;;;40.77;;
8944;SDS011;4507;40.232;29.132;2023-03-03T08:53:36;50.07;;;42.00;;
8944;SDS011;4507;40.232;29.132;2023-03-03T08:56:05;62.50;;;43.23;;
8944;SDS011;4507;40.232;29.132;2023-03-03T08:58:36;59.73;;;46.47;;
8944;SDS011;4507;40.232;29.132;2023-03-03T09:01:12;60.77;;;46.43;;
8944;SDS011;4507;40.232;29.132;2023-03-03T09:03:42;57.53;;;43.50;;
8944;SDS011;4507;40.232;29.132;2023-03-03T09:06:12;47.53;;;41.37;;
8944;SDS011;4507;40.232;29.132;2023-03-03T09:08:40;132.67;;;43.63;;
8944;SDS011;4507;40.232;29.132;2023-03-03T09:11:10;125.40;;;46.80;;
8944;SDS011;4507;40.232;29.132;2023-03-03T09:13:40;64.07;;;39.83;;
8944;SDS011;4507;40.232;29.132;2023-03-03T09:16:12;44.00;;;35.17;;
8944;SDS011;4507;40.232;29.132;2023-03-03T09:18:42;48.43;;;35.53;;
8944;SDS011;4507;40.232;29.132;2023-03-03T09:21:15;55.63;;;39.40;;
8944;SDS011;4507;40.232;29.132;2023-03-03T09:23:52;42.90;;;34.57;;
8944;SDS011;4507;40.232;29.132;2023-03-03T09:26:27;42.17;;;33.93;;
8944;SDS011;4507;40.232;29.132;2023-03-03T09:28:58;45.27;;;36.43;;
8944;SDS011;4507;40.232;29.132;2023-03-03T09:31:39;40.37;;;33.20;;
8944;SDS011;4507;40.232;29.132;2023-03-03T09:34:15;41.17;;;36.73;;
8944;SDS011;4507;40.232;29.132;2023-03-03T09:36:49;44.60;;;34.83;;
8944;SDS011;4507;40.232;29.132;2023-03-03T09:39:20;36.93;;;31.70;;
8944;SDS011;4507;40.232;29.132;2023-03-03T09:44:54;43.80;;;35.67;;
8944;SDS011;4507;40.232;29.132;2023-03-03T09:47:39;60.27;;;40.83;;
8944;SDS011;4507;40.232;29.132;2023-03-03T09:50:22;52.90;;;37.97;;
8944;SDS011;4507;40.232;29.132;2023-03-03T09:53:02;59.97;;;45.80;;
8944;SDS011;4507;40.232;29.132;2023-03-03T09:55:40;60.53;;;45.97;;
8944;SDS011;4507;40.232;29.132;2023-03-03T09:58:21;54.37;;;41.87;;
8944;SDS011;4507;40.232;29.132;2023-03-03T10:01:04;75.13;;;43.03;;
8944;SDS011;4507;40.232;29.132;2023-03-03T10:06:44;69.37;;;50.73;;
8944;SDS011;4507;40.232;29.132;2023-03-03T10:12:10;66.60;;;51.47;;
8944;SDS011;4507;40.232;29.132;2023-03-03T10:14:48;68.97;;;50.93;;
8944;SDS011;4507;40.232;29.132;2023-03-03T10:17:39;73.30;;;52.63;;
8944;SDS011;4507;40.232;29.132;2023-03-03T10:20:20;73.97;;;51.80;;
8944;SDS011;4507;40.232;29.132;2023-03-03T10:23:20;67.70;;;53.83;;
8944;SDS011;4507;40.232;29.132;2023-03-03T10:25:56;65.43;;;52.90;;
8944;SDS011;4507;40.232;29.132;2023-03-03T10:28:44;71.03;;;57.37;;
8944;SDS011;4507;40.232;29.132;2023-03-03T10:31:29;78.23;;;58.27;;
8944;SDS011;4507;40.232;29.132;2023-03-03T10:34:11;71.77;;;58.60;;
8944;SDS011;4507;40.232;29.132;2023-03-03T10:36:54;75.70;;;57.50;;
8944;SDS011;4507;40.232;29.132;2023-03-03T10:39:32;73.40;;;55.83;;
8944;SDS011;4507;40.232;29.132;2023-03-03T10:42:17;78.53;;;59.87;;
8944;SDS011;4507;40.232;29.132;2023-03-03T10:45:05;84.73;;;63.93;;
8944;SDS011;4507;40.232;29.132;2023-03-03T10:47:50;91.97;;;64.27;;
8944;SDS011;4507;40.232;29.132;2023-03-03T10:50:41;80.87;;;61.30;;
8944;SDS011;4507;40.232;29.132;2023-03-03T10:53:21;78.23;;;60.87;;
8944;SDS011;4507;40.232;29.132;2023-03-03T10:56:25;89.23;;;61.93;;
8944;SDS011;4507;40.232;29.132;2023-03-03T10:59:37;77.83;;;60.10;;
8944;SDS011;4507;40.232;29.132;2023-03-03T11:02:22;85.20;;;60.77;;
8944;SDS011;4507;40.232;29.132;2023-03-03T11:05:11;80.33;;;58.53;;
8944;SDS011;4507;40.232;29.132;2023-03-03T11:07:53;75.53;;;57.77;;
8944;SDS011;4507;40.232;29.132;2023-03-03T11:10:29;80.43;;;60.53;;
8944;SDS011;4507;40.232;29.132;2023-03-03T11:13:15;91.77;;;69.07;;
8944;SDS011;4507;40.232;29.132;2023-03-03T11:16:08;101.90;;;72.27;;
8944;SDS011;4507;40.232;29.132;2023-03-03T11:18:47;90.53;;;69.60;;
8944;SDS011;4507;40.232;29.132;2023-03-03T11:21:28;85.43;;;65.07;;
8944;SDS011;4507;40.232;29.132;2023-03-03T11:24:06;85.97;;;66.33;;
8944;SDS011;4507;40.232;29.132;2023-03-03T11:27:02;82.70;;;63.47;;
8944;SDS011;4507;40.232;29.132;2023-03-03T11:29:45;88.47;;;64.93;;
8944;SDS011;4507;40.232;29.132;2023-03-03T11:32:25;101.57;;;69.37;;
8944;SDS011;4507;40.232;29.132;2023-03-03T11:35:08;96.40;;;68.03;;
8944;SDS011;4507;40.232;29.132;2023-03-03T11:37:53;92.90;;;68.70;;
8944;SDS011;4507;40.232;29.132;2023-03-03T11:40:31;92.63;;;68.17;;
8944;SDS011;4507;40.232;29.132;2023-03-03T11:43:13;84.83;;;66.47;;
8944;SDS011;4507;40.232;29.132;2023-03-03T11:46:03;92.20;;;71.20;;
8944;SDS011;4507;40.232;29.132;2023-03-03T11:48:38;93.93;;;70.20;;
8944;SDS011;4507;40.232;29.132;2023-03-03T11:51:13;93.43;;;71.87;;
8944;SDS011;4507;40.232;29.132;2023-03-03T11:53:53;93.40;;;70.73;;
8944;SDS011;4507;40.232;29.132;2023-03-03T11:56:29;77.57;;;58.67;;
8944;SDS011;4507;40.232;29.132;2023-03-03T11:59:16;95.20;;;70.50;;
8944;SDS011;4507;40.232;29.132;2023-03-03T12:02:21;95.27;;;73.70;;
8944;SDS011;4507;40.232;29.132;2023-03-03T12:05:10;89.83;;;63.60;;
8944;SDS011;4507;40.232;29.132;2023-03-03T12:07:48;90.23;;;62.97;;
8944;SDS011;4507;40.232;29.132;2023-03-03T12:10:27;74.37;;;58.13;;
8944;SDS011;4507;40.232;29.132;2023-03-03T12:13:04;97.17;;;69.70;;
8944;SDS011;4507;40.232;29.132;2023-03-03T12:15:43;92.10;;;63.37;;
8944;SDS011;4507;40.232;29.132;2023-03-03T12:18:29;82.17;;;60.53;;
8944;SDS011;4507;40.232;29.132;2023-03-03T12:21:24;71.00;;;54.70;;
8944;SDS011;4507;40.232;29.132;2023-03-03T12:24:07;67.73;;;50.13;;
8944;SDS011;4507;40.232;29.132;2023-03-03T12:26:47;67.73;;;51.00;;
8944;SDS011;4507;40.232;29.132;2023-03-03T12:29:24;80.00;;;60.43;;
8944;SDS011;4507;40.232;29.132;2023-03-03T12:32:00;69.23;;;52.20;;
8944;SDS011;4507;40.232;29.132;2023-03-03T12:34:45;72.33;;;51.17;;
8944;SDS011;4507;40.232;29.132;2023-03-03T12:37:22;107.57;;;70.90;;
8944;SDS011;4507;40.232;29.132;2023-03-03T12:40:06;71.90;;;53.33;;
8944;SDS011;4507;40.232;29.132;2023-03-03T12:42:48;78.30;;;56.40;;
8944;SDS011;4507;40.232;29.132;2023-03-03T12:45:40;62.97;;;47.97;;
8944;SDS011;4507;40.232;29.132;2023-03-03T12:48:27;62.97;;;46.63;;
8944;SDS011;4507;40.232;29.132;2023-03-03T12:51:05;62.40;;;45.00;;
8944;SDS011;4507;40.232;29.132;2023-03-03T12:54:13;68.47;;;47.93;;
8944;SDS011;4507;40.232;29.132;2023-03-03T12:56:50;58.80;;;45.80;;
8944;SDS011;4507;40.232;29.132;2023-03-03T12:59:24;67.87;;;45.73;;
8944;SDS011;4507;40.232;29.132;2023-03-03T13:02:11;60.53;;;46.17;;
8944;SDS011;4507;40.232;29.132;2023-03-03T13:04:59;68.63;;;50.33;;
8944;SDS011;4507;40.232;29.132;2023-03-03T13:07:34;58.13;;;43.73;;
8944;SDS011;4507;40.232;29.132;2023-03-03T13:10:11;54.07;;;43.57;;
8944;SDS011;4507;40.232;29.132;2023-03-03T13:12:47;57.23;;;43.93;;
8944;SDS011;4507;40.232;29.132;2023-03-03T13:15:23;54.30;;;44.17;;
8944;SDS011;4507;40.232;29.132;2023-03-03T13:18:02;58.93;;;43.20;;
8944;SDS011;4507;40.232;29.132;2023-03-03T13:20:58;54.23;;;41.57;;
8944;SDS011;4507;40.232;29.132;2023-03-03T13:23:35;52.23;;;41.50;;
8944;SDS011;4507;40.232;29.132;2023-03-03T13:26:16;63.80;;;43.03;;
8944;SDS011;4507;40.232;29.132;2023-03-03T13:29:01;55.67;;;41.10;;
8944;SDS011;4507;40.232;29.132;2023-03-03T13:31:39;58.40;;;40.33;;
8944;SDS011;4507;40.232;29.132;2023-03-03T13:34:15;58.10;;;41.57;;
8944;SDS011;4507;40.232;29.132;2023-03-03T13:36:55;50.77;;;40.63;;
8944;SDS011;4507;40.232;29.132;2023-03-03T13:39:28;52.63;;;40.90;;
8944;SDS011;4507;40.232;29.132;2023-03-03T13:42:01;58.47;;;45.60;;
8944;SDS011;4507;40.232;29.132;2023-03-03T13:44:35;53.73;;;42.23;;
8944;SDS011;4507;40.232;29.132;2023-03-03T13:47:12;54.47;;;41.23;;
8944;SDS011;4507;40.232;29.132;2023-03-03T13:49:49;61.47;;;41.43;;
8944;SDS011;4507;40.232;29.132;2023-03-03T13:52:30;61.20;;;38.30;;
8944;SDS011;4507;40.232;29.132;2023-03-03T13:55:07;54.73;;;37.80;;
8944;SDS011;4507;40.232;29.132;2023-03-03T13:57:43;52.70;;;37.73;;
8944;SDS011;4507;40.232;29.132;2023-03-03T14:00:22;52.83;;;39.30;;
8944;SDS011;4507;40.232;29.132;2023-03-03T14:03:02;69.30;;;40.73;;
8944;SDS011;4507;40.232;29.132;2023-03-03T14:05:44;58.57;;;38.37;;
8944;SDS011;4507;40.232;29.132;2023-03-03T14:08:19;60.07;;;37.97;;
8944;SDS011;4507;40.232;29.132;2023-03-03T14:11:06;67.00;;;40.67;;
8944;SDS011;4507;40.232;29.132;2023-03-03T14:13:40;57.40;;;38.37;;
8944;SDS011;4507;40.232;29.132;2023-03-03T14:16:18;67.00;;;42.87;;
8944;SDS011;4507;40.232;29.132;2023-03-03T14:19:04;64.37;;;41.40;;
8944;SDS011;4507;40.232;29.132;2023-03-03T14:21:42;85.63;;;43.83;;
8944;SDS011;4507;40.232;29.132;2023-03-03T14:24:18;67.80;;;42.50;;
8944;SDS011;4507;40.232;29.132;2023-03-03T14:26:49;62.00;;;43.37;;
8944;SDS011;4507;40.232;29.132;2023-03-03T14:29:21;59.33;;;38.17;;
8944;SDS011;4507;40.232;29.132;2023-03-03T14:32:19;57.83;;;39.37;;
8944;SDS011;4507;40.232;29.132;2023-03-03T14:35:12;59.20;;;40.63;;
8944;SDS011;4507;40.232;29.132;2023-03-03T14:37:46;54.83;;;40.30;;
8944;SDS011;4507;40.232;29.132;2023-03-03T14:40:19;67.67;;;42.30;;
8944;SDS011;4507;40.232;29.132;2023-03-03T14:42:52;69.40;;;44.57;;
8944;SDS011;4507;40.232;29.132;2023-03-03T14:45:41;76.47;;;46.97;;
8944;SDS011;4507;40.232;29.132;2023-03-03T14:48:10;73.30;;;47.60;;
8944;SDS011;4507;40.232;29.132;2023-03-03T14:50:47;76.40;;;49.83;;
8944;SDS011;4507;40.232;29.132;2023-03-03T14:53:22;66.43;;;48.63;;
8944;SDS011;4507;40.232;29.132;2023-03-03T14:56:22;82.53;;;50.63;;
8944;SDS011;4507;40.232;29.132;2023-03-03T14:58:52;70.73;;;49.97;;
8944;SDS011;4507;40.232;29.132;2023-03-03T15:01:24;71.47;;;49.23;;
8944;SDS011;4507;40.232;29.132;2023-03-03T15:04:01;73.90;;;50.30;;
8944;SDS011;4507;40.232;29.132;2023-03-03T15:06:35;71.27;;;51.53;;
8944;SDS011;4507;40.232;29.132;2023-03-03T15:09:24;79.80;;;54.17;;
8944;SDS011;4507;40.232;29.132;2023-03-03T15:12:00;79.90;;;54.53;;
8944;SDS011;4507;40.232;29.132;2023-03-03T15:14:31;96.67;;;62.17;;
8944;SDS011;4507;40.232;29.132;2023-03-03T15:17:25;77.07;;;55.27;;
8944;SDS011;4507;40.232;29.132;2023-03-03T15:20:07;76.40;;;51.77;;
8944;SDS011;4507;40.232;29.132;2023-03-03T15:22:52;72.23;;;50.27;;
8944;SDS011;4507;40.232;29.132;2023-03-03T15:25:32;74.67;;;52.57;;
8944;SDS011;4507;40.232;29.132;2023-03-03T15:28:17;83.07;;;52.30;;
8944;SDS011;4507;40.232;29.132;2023-03-03T15:30:56;79.13;;;50.73;;
8944;SDS011;4507;40.232;29.132;2023-03-03T15:33:31;81.97;;;53.03;;
8944;SDS011;4507;40.232;29.132;2023-03-03T15:36:07;79.53;;;52.97;;
8944;SDS011;4507;40.232;29.132;2023-03-03T15:38:44;88.07;;;51.17;;
8944;SDS011;4507;40.232;29.132;2023-03-03T15:41:25;87.33;;;53.57;;
8944;SDS011;4507;40.232;29.132;2023-03-03T15:44:05;90.13;;;55.60;;
8944;SDS011;4507;40.232;29.132;2023-03-03T15:46:53;87.37;;;53.30;;